Terminal Aerodrome Forecast
Issued by NWS

Home | Current Version | Previous Version | Text Only | Print | Product List | Glossary On
Versions: 1 2 3 4 5 6 7 8 9 10 11 12 13 14 15 16 17
000
FTUS41 KPBZ 011700
TAFFKL
TAF
KFKL 011738Z 0118/0218 13006KT 1SM -SN BR BKN009 OVC015
     FM020000 10007KT 1/2SM SN FG OVC003
     FM020900 18009KT 2SM -SN BR OVC008
     FM021200 VRB05KT 4SM -RA BR OVC008
     FM021500 31012G22KT 2SM -SN BR OVC008
      AMD LTD TO CLD VIS AND WIND=

USA.gov is the U.S. government's official web portal to all federal, state and local government web resources and services.